AUA563 LOWW-LOWI
Flight info
| Callsign | AUA563 |
|---|---|
| Flight time | 0h 48m |
| Altitude | 24000 |
| Route | SOVIL DCT SITNI DCT BAGSI DCT NANIT NANIT2A |
| Aircraft | A320/M-SDE3FGHIRWY/LB1 |
Departure
| Time | 2026-05-06 23:16 |
|---|---|
| Airport | Vienna International Airport (LOWW) |
Arrival
| Time | 2026-05-07 00:05 |
|---|---|
| Airport | Innsbruck Airport (LOWI) |
| Time | Latitude | Longitude | Altitude | Speed | Heading |
|---|---|---|---|---|---|
| 2026-05-06 22:42 | 48.11842 | 16.56936 | 602 ft | 0 kts | 197° |
| 2026-05-06 23:06 | 48.11862 | 16.56945 | 594 ft | 4 kts | 198° |
| 2026-05-06 23:06 | 48.11886 | 16.56959 | 601 ft | 4 kts | 192° |
| 2026-05-06 23:06 | 48.11910 | 16.56958 | 600 ft | 4 kts | 144° |
| 2026-05-06 23:06 | 48.11920 | 16.56944 | 600 ft | 0 kts | 116° |
| 2026-05-06 23:10 | 48.11915 | 16.56959 | 600 ft | 2 kts | 116° |
| 2026-05-06 23:10 | 48.11905 | 16.56989 | 600 ft | 8 kts | 116° |
| 2026-05-06 23:10 | 48.11882 | 16.57062 | 601 ft | 7 kts | 115° |
| 2026-05-06 23:10 | 48.11864 | 16.57118 | 601 ft | 5 kts | 115° |
| 2026-05-06 23:11 | 48.11856 | 16.57182 | 602 ft | 13 kts | 95° |
| 2026-05-06 23:11 | 48.11851 | 16.57300 | 602 ft | 11 kts | 56° |
| 2026-05-06 23:11 | 48.11922 | 16.57298 | 600 ft | 11 kts | 344° |
| 2026-05-06 23:11 | 48.11989 | 16.57289 | 599 ft | 6 kts | 51° |
| 2026-05-06 23:12 | 48.11992 | 16.57340 | 599 ft | 6 kts | 78° |
| 2026-05-06 23:12 | 48.12002 | 16.57394 | 600 ft | 5 kts | 75° |
| 2026-05-06 23:12 | 48.12011 | 16.57444 | 600 ft | 7 kts | 75° |
| 2026-05-06 23:12 | 48.12007 | 16.57524 | 599 ft | 8 kts | 104° |
| 2026-05-06 23:13 | 48.11999 | 16.57573 | 598 ft | 0 kts | 104° |
| 2026-05-06 23:14 | 48.11999 | 16.57574 | 598 ft | 1 kts | 104° |
| 2026-05-06 23:14 | 48.11992 | 16.57614 | 597 ft | 6 kts | 104° |
| 2026-05-06 23:14 | 48.11982 | 16.57678 | 596 ft | 7 kts | 104° |
| 2026-05-06 23:15 | 48.11970 | 16.57744 | 597 ft | 6 kts | 107° |
| 2026-05-06 23:15 | 48.11943 | 16.57810 | 599 ft | 6 kts | 127° |
| 2026-05-06 23:15 | 48.11922 | 16.57833 | 600 ft | 3 kts | 154° |
| 2026-05-06 23:15 | 48.11757 | 16.57911 | 604 ft | 62 kts | 164° |
| 2026-05-06 23:16 | 48.11104 | 16.58187 | 614 ft | 130 kts | 164° |
| 2026-05-06 23:16 | 48.10075 | 16.58611 | 811 ft | 164 kts | 168° |
| 2026-05-06 23:16 | 48.08974 | 16.59069 | 1602 ft | 164 kts | 169° |
| 2026-05-06 23:16 | 48.07828 | 16.59529 | 2118 ft | 181 kts | 171° |
| 2026-05-06 23:17 | 48.06526 | 16.60004 | 2504 ft | 202 kts | 180° |
| 2026-05-06 23:17 | 48.05169 | 16.59471 | 2919 ft | 213 kts | 222° |
| 2026-05-06 23:17 | 48.04190 | 16.57692 | 3422 ft | 234 kts | 237° |
| 2026-05-06 23:17 | 48.03229 | 16.55652 | 4203 ft | 246 kts | 237° |
| 2026-05-06 23:18 | 48.02223 | 16.53546 | 5165 ft | 251 kts | 237° |
| 2026-05-06 23:18 | 48.01188 | 16.51398 | 6130 ft | 257 kts | 236° |
| 2026-05-06 23:18 | 48.00130 | 16.49219 | 7062 ft | 261 kts | 236° |
| 2026-05-06 23:18 | 47.99055 | 16.47015 | 8021 ft | 264 kts | 235° |
| 2026-05-06 23:19 | 47.98183 | 16.44589 | 8956 ft | 268 kts | 251° |
| 2026-05-06 23:19 | 47.97901 | 16.41822 | 9867 ft | 275 kts | 269° |
| 2026-05-06 23:19 | 47.98012 | 16.38875 | 10355 ft | 296 kts | 271° |
| 2026-05-06 23:19 | 47.98141 | 16.35708 | 10833 ft | 313 kts | 271° |
| 2026-05-06 23:20 | 47.98275 | 16.32429 | 11604 ft | 319 kts | 271° |
| 2026-05-06 23:20 | 47.98412 | 16.29088 | 12406 ft | 325 kts | 271° |
| 2026-05-06 23:20 | 47.98548 | 16.25705 | 13238 ft | 329 kts | 271° |
| 2026-05-06 23:20 | 47.98682 | 16.22270 | 14009 ft | 333 kts | 271° |
| 2026-05-06 23:21 | 47.98813 | 16.18800 | 14732 ft | 337 kts | 270° |
| 2026-05-06 23:21 | 47.98946 | 16.15300 | 15482 ft | 340 kts | 270° |
| 2026-05-06 23:21 | 47.99086 | 16.11748 | 16235 ft | 343 kts | 271° |
| 2026-05-06 23:21 | 47.99300 | 16.08186 | 16980 ft | 347 kts | 273° |
| 2026-05-06 23:22 | 47.99480 | 16.05802 | 17466 ft | 349 kts | 274° |
| 2026-05-06 23:22 | 47.99883 | 16.01008 | 18377 ft | 354 kts | 274° |
| 2026-05-06 23:22 | 48.00199 | 15.97335 | 19013 ft | 357 kts | 274° |
| 2026-05-06 23:22 | 48.00405 | 15.94890 | 19386 ft | 359 kts | 273° |
| 2026-05-06 23:23 | 48.00705 | 15.91170 | 19972 ft | 362 kts | 272° |
| 2026-05-06 23:23 | 48.00995 | 15.87408 | 20569 ft | 366 kts | 272° |
| 2026-05-06 23:23 | 48.01279 | 15.83604 | 21133 ft | 371 kts | 272° |
| 2026-05-06 23:23 | 48.01564 | 15.79754 | 21757 ft | 375 kts | 272° |
| 2026-05-06 23:24 | 48.01851 | 15.75865 | 22389 ft | 378 kts | 272° |
| 2026-05-06 23:24 | 48.02143 | 15.71949 | 23015 ft | 381 kts | 272° |
| 2026-05-06 23:24 | 48.02437 | 15.68013 | 23647 ft | 377 kts | 272° |
| 2026-05-06 23:24 | 48.02723 | 15.64204 | 23814 ft | 363 kts | 272° |
| 2026-05-06 23:25 | 48.02999 | 15.60488 | 23862 ft | 358 kts | 271° |
| 2026-05-06 23:25 | 48.03266 | 15.56788 | 23870 ft | 357 kts | 271° |
| 2026-05-06 23:25 | 48.03529 | 15.53100 | 23867 ft | 357 kts | 271° |
| 2026-05-06 23:25 | 48.03792 | 15.49413 | 23869 ft | 356 kts | 271° |
| 2026-05-06 23:26 | 48.04054 | 15.45718 | 23882 ft | 358 kts | 271° |
| 2026-05-06 23:26 | 48.04317 | 15.42022 | 23879 ft | 359 kts | 271° |
| 2026-05-06 23:26 | 48.04582 | 15.38309 | 23878 ft | 359 kts | 271° |
| 2026-05-06 23:26 | 48.04774 | 15.34643 | 23875 ft | 358 kts | 268° |
| 2026-05-06 23:27 | 48.04869 | 15.30926 | 23880 ft | 357 kts | 266° |
| 2026-05-06 23:27 | 48.04911 | 15.27215 | 23883 ft | 357 kts | 266° |
| 2026-05-06 23:27 | 48.04931 | 15.23501 | 23886 ft | 357 kts | 266° |
| 2026-05-06 23:27 | 48.04952 | 15.19790 | 23888 ft | 357 kts | 266° |
| 2026-05-06 23:28 | 48.04984 | 15.16087 | 23894 ft | 357 kts | 266° |
| 2026-05-06 23:28 | 48.05028 | 15.12369 | 23898 ft | 357 kts | 266° |
| 2026-05-06 23:28 | 48.05078 | 15.08659 | 23900 ft | 357 kts | 266° |
| 2026-05-06 23:28 | 48.05132 | 15.04940 | 23901 ft | 358 kts | 266° |
| 2026-05-06 23:29 | 48.05187 | 15.01239 | 23920 ft | 357 kts | 266° |
| 2026-05-06 23:29 | 48.05243 | 14.97527 | 23919 ft | 356 kts | 266° |
| 2026-05-06 23:29 | 48.05298 | 14.93838 | 23924 ft | 356 kts | 265° |
| 2026-05-06 23:29 | 48.05347 | 14.90138 | 23923 ft | 355 kts | 265° |
| 2026-05-06 23:30 | 48.05391 | 14.86442 | 23921 ft | 355 kts | 265° |
| 2026-05-06 23:30 | 48.05433 | 14.82759 | 23921 ft | 354 kts | 265° |
| 2026-05-06 23:30 | 48.05470 | 14.79080 | 23920 ft | 354 kts | 265° |
| 2026-05-06 23:30 | 48.05502 | 14.75403 | 23924 ft | 354 kts | 265° |
| 2026-05-06 23:31 | 48.05530 | 14.71727 | 23922 ft | 353 kts | 265° |
| 2026-05-06 23:31 | 48.05556 | 14.68057 | 23923 ft | 353 kts | 265° |
| 2026-05-06 23:31 | 48.05584 | 14.64383 | 23917 ft | 353 kts | 265° |
| 2026-05-06 23:31 | 48.05613 | 14.60764 | 23950 ft | 353 kts | 265° |
| 2026-05-06 23:32 | 48.05642 | 14.57050 | 23948 ft | 353 kts | 264° |
| 2026-05-06 23:32 | 48.05667 | 14.53391 | 23941 ft | 352 kts | 264° |
| 2026-05-06 23:32 | 48.05690 | 14.49765 | 23945 ft | 351 kts | 264° |
| 2026-05-06 23:32 | 48.05711 | 14.46112 | 23945 ft | 351 kts | 264° |
| 2026-05-06 23:33 | 48.05727 | 14.42462 | 23944 ft | 350 kts | 264° |
| 2026-05-06 23:33 | 48.05743 | 14.38819 | 23944 ft | 350 kts | 264° |
| 2026-05-06 23:33 | 48.05759 | 14.35172 | 23941 ft | 350 kts | 264° |
| 2026-05-06 23:33 | 48.05718 | 14.31546 | 23927 ft | 347 kts | 258° |
| 2026-05-06 23:34 | 48.05276 | 14.28050 | 23927 ft | 340 kts | 248° |
| 2026-05-06 23:34 | 48.04415 | 14.24792 | 23926 ft | 335 kts | 239° |
| 2026-05-06 23:34 | 48.03378 | 14.21664 | 23922 ft | 335 kts | 239° |
| 2026-05-06 23:34 | 48.02341 | 14.18538 | 23920 ft | 335 kts | 239° |
| 2026-05-06 23:35 | 48.01306 | 14.15418 | 23918 ft | 335 kts | 239° |
| 2026-05-06 23:35 | 48.00284 | 14.12338 | 23955 ft | 335 kts | 239° |
| 2026-05-06 23:35 | 47.99249 | 14.09220 | 23954 ft | 334 kts | 239° |
| 2026-05-06 23:35 | 47.98220 | 14.06124 | 23954 ft | 333 kts | 239° |
| 2026-05-06 23:36 | 47.97193 | 14.03025 | 23959 ft | 332 kts | 239° |
| 2026-05-06 23:36 | 47.96170 | 13.99938 | 23956 ft | 332 kts | 239° |
| 2026-05-06 23:36 | 47.95145 | 13.96857 | 23953 ft | 331 kts | 239° |
| 2026-05-06 23:36 | 47.94119 | 13.93787 | 23950 ft | 331 kts | 239° |
| 2026-05-06 23:37 | 47.93086 | 13.90713 | 23945 ft | 330 kts | 239° |
| 2026-05-06 23:37 | 47.92058 | 13.87646 | 23945 ft | 331 kts | 239° |
| 2026-05-06 23:37 | 47.91030 | 13.84581 | 23942 ft | 331 kts | 239° |
| 2026-05-06 23:37 | 47.90002 | 13.81516 | 23951 ft | 330 kts | 239° |
| 2026-05-06 23:38 | 47.88974 | 13.78452 | 23949 ft | 330 kts | 239° |
| 2026-05-06 23:38 | 47.87946 | 13.75390 | 23946 ft | 330 kts | 239° |
| 2026-05-06 23:38 | 47.86929 | 13.72370 | 23942 ft | 330 kts | 239° |
| 2026-05-06 23:38 | 47.85899 | 13.69319 | 23940 ft | 330 kts | 239° |
| 2026-05-06 23:39 | 47.84869 | 13.66268 | 23938 ft | 330 kts | 239° |
| 2026-05-06 23:39 | 47.83838 | 13.63218 | 23928 ft | 329 kts | 239° |
| 2026-05-06 23:39 | 47.82809 | 13.60179 | 23977 ft | 329 kts | 239° |
| 2026-05-06 23:39 | 47.81780 | 13.57140 | 23975 ft | 328 kts | 239° |
| 2026-05-06 23:40 | 47.80752 | 13.54106 | 23976 ft | 328 kts | 239° |
| 2026-05-06 23:40 | 47.79725 | 13.51074 | 23972 ft | 327 kts | 239° |
| 2026-05-06 23:40 | 47.78701 | 13.48058 | 23966 ft | 327 kts | 239° |
| 2026-05-06 23:40 | 47.77676 | 13.45040 | 23956 ft | 327 kts | 239° |
| 2026-05-06 23:41 | 47.76651 | 13.42019 | 23959 ft | 328 kts | 239° |
| 2026-05-06 23:41 | 47.75622 | 13.39000 | 23958 ft | 328 kts | 239° |
| 2026-05-06 23:41 | 47.74592 | 13.35982 | 23951 ft | 326 kts | 239° |
| 2026-05-06 23:41 | 47.73567 | 13.32978 | 23953 ft | 326 kts | 239° |
| 2026-05-06 23:42 | 47.72540 | 13.29974 | 23953 ft | 326 kts | 239° |
| 2026-05-06 23:42 | 47.71508 | 13.26969 | 23947 ft | 326 kts | 239° |
| 2026-05-06 23:42 | 47.70480 | 13.23974 | 23948 ft | 326 kts | 239° |
| 2026-05-06 23:42 | 47.69447 | 13.20969 | 23945 ft | 326 kts | 238° |
| 2026-05-06 23:43 | 47.68414 | 13.17968 | 23943 ft | 326 kts | 239° |
| 2026-05-06 23:43 | 47.67395 | 13.15007 | 23936 ft | 326 kts | 239° |
| 2026-05-06 23:43 | 47.66364 | 13.12010 | 23939 ft | 326 kts | 239° |
| 2026-05-06 23:43 | 47.65335 | 13.09021 | 23984 ft | 325 kts | 238° |
| 2026-05-06 23:44 | 47.64304 | 13.06038 | 23983 ft | 325 kts | 238° |
| 2026-05-06 23:44 | 47.63276 | 13.03067 | 23980 ft | 323 kts | 238° |
| 2026-05-06 23:44 | 47.62251 | 13.00102 | 23976 ft | 322 kts | 238° |
| 2026-05-06 23:44 | 47.61226 | 12.97145 | 23972 ft | 322 kts | 238° |
| 2026-05-06 23:45 | 47.60206 | 12.94201 | 23971 ft | 321 kts | 238° |
| 2026-05-06 23:45 | 47.59186 | 12.91258 | 23716 ft | 320 kts | 238° |
| 2026-05-06 23:45 | 47.58176 | 12.88349 | 23292 ft | 314 kts | 238° |
| 2026-05-06 23:45 | 47.57180 | 12.85485 | 22865 ft | 311 kts | 238° |
| 2026-05-06 23:46 | 47.56191 | 12.82646 | 22456 ft | 309 kts | 238° |
| 2026-05-06 23:46 | 47.55205 | 12.79816 | 22048 ft | 308 kts | 238° |
| 2026-05-06 23:46 | 47.54227 | 12.77013 | 21652 ft | 306 kts | 238° |
| 2026-05-06 23:46 | 47.53250 | 12.74217 | 21257 ft | 306 kts | 238° |
| 2026-05-06 23:47 | 47.52274 | 12.71429 | 20860 ft | 305 kts | 239° |
| 2026-05-06 23:47 | 47.51303 | 12.68656 | 20455 ft | 303 kts | 239° |
| 2026-05-06 23:47 | 47.50332 | 12.65886 | 20070 ft | 303 kts | 239° |
| 2026-05-06 23:47 | 47.49365 | 12.63133 | 19688 ft | 302 kts | 239° |
| 2026-05-06 23:48 | 47.48394 | 12.60383 | 19288 ft | 300 kts | 239° |
| 2026-05-06 23:48 | 47.47429 | 12.57644 | 18934 ft | 301 kts | 239° |
| 2026-05-06 23:48 | 47.46463 | 12.54903 | 18534 ft | 301 kts | 239° |
| 2026-05-06 23:48 | 47.45505 | 12.52186 | 18148 ft | 301 kts | 240° |
| 2026-05-06 23:49 | 47.44542 | 12.49449 | 17729 ft | 300 kts | 240° |
| 2026-05-06 23:49 | 47.43569 | 12.46692 | 17344 ft | 298 kts | 240° |
| 2026-05-06 23:49 | 47.42622 | 12.44014 | 16977 ft | 297 kts | 240° |
| 2026-05-06 23:49 | 47.41663 | 12.41309 | 16606 ft | 296 kts | 240° |
| 2026-05-06 23:50 | 47.40710 | 12.38626 | 16239 ft | 294 kts | 240° |
| 2026-05-06 23:50 | 47.39611 | 12.32810 | 15468 ft | 299 kts | 264° |
| 2026-05-06 23:50 | 47.39764 | 12.29733 | 15069 ft | 303 kts | 274° |
| 2026-05-06 23:51 | 47.40064 | 12.26658 | 14755 ft | 298 kts | 274° |
| 2026-05-06 23:51 | 47.40352 | 12.23669 | 14629 ft | 289 kts | 274° |
| 2026-05-06 23:51 | 47.40628 | 12.20767 | 14508 ft | 281 kts | 273° |
| 2026-05-06 23:51 | 47.40892 | 12.17955 | 14381 ft | 272 kts | 273° |
| 2026-05-06 23:52 | 47.41146 | 12.15264 | 14252 ft | 255 kts | 273° |
| 2026-05-06 23:52 | 47.41382 | 12.12761 | 14122 ft | 238 kts | 273° |
| 2026-05-06 23:52 | 47.41601 | 12.10394 | 13814 ft | 229 kts | 272° |
| 2026-05-06 23:52 | 47.41811 | 12.08078 | 13362 ft | 226 kts | 272° |
| 2026-05-06 23:53 | 47.42019 | 12.05780 | 12877 ft | 226 kts | 272° |
| 2026-05-06 23:53 | 47.42226 | 12.03488 | 12393 ft | 225 kts | 273° |
| 2026-05-06 23:53 | 47.42434 | 12.01202 | 11889 ft | 224 kts | 273° |
| 2026-05-06 23:53 | 47.42582 | 11.98904 | 11290 ft | 225 kts | 265° |
| 2026-05-06 23:54 | 47.42381 | 11.96630 | 10784 ft | 221 kts | 251° |
| 2026-05-06 23:54 | 47.41845 | 11.94564 | 10429 ft | 211 kts | 240° |
| 2026-05-06 23:54 | 47.41066 | 11.92840 | 10203 ft | 199 kts | 227° |
| 2026-05-06 23:54 | 47.40092 | 11.91451 | 10137 ft | 193 kts | 217° |
| 2026-05-06 23:55 | 47.38967 | 11.90371 | 10052 ft | 193 kts | 211° |
| 2026-05-06 23:55 | 47.37803 | 11.89346 | 9981 ft | 196 kts | 210° |
| 2026-05-06 23:55 | 47.36650 | 11.88328 | 9912 ft | 188 kts | 210° |
| 2026-05-06 23:55 | 47.35559 | 11.87361 | 9798 ft | 177 kts | 212° |
| 2026-05-06 23:56 | 47.34623 | 11.86289 | 9740 ft | 166 kts | 222° |
| 2026-05-06 23:56 | 47.33865 | 11.85064 | 9688 ft | 157 kts | 230° |
| 2026-05-06 23:56 | 47.33273 | 11.83736 | 9617 ft | 155 kts | 239° |
| 2026-05-06 23:56 | 47.32809 | 11.82302 | 9535 ft | 155 kts | 242° |
| 2026-05-06 23:57 | 47.32414 | 11.80819 | 9472 ft | 158 kts | 249° |
| 2026-05-06 23:57 | 47.32117 | 11.79265 | 9265 ft | 157 kts | 253° |
| 2026-05-06 23:57 | 47.31870 | 11.77698 | 9012 ft | 156 kts | 255° |
| 2026-05-06 23:57 | 47.31641 | 11.76116 | 8743 ft | 159 kts | 255° |
| 2026-05-06 23:58 | 47.31420 | 11.74526 | 8480 ft | 157 kts | 255° |
| 2026-05-06 23:58 | 47.31208 | 11.72976 | 8243 ft | 150 kts | 255° |
| 2026-05-06 23:58 | 47.31006 | 11.71495 | 7975 ft | 146 kts | 256° |
| 2026-05-06 23:58 | 47.30807 | 11.70036 | 7725 ft | 145 kts | 256° |
| 2026-05-06 23:59 | 47.30611 | 11.68599 | 7491 ft | 144 kts | 255° |
| 2026-05-06 23:59 | 47.30412 | 11.67137 | 7248 ft | 143 kts | 255° |
| 2026-05-06 23:59 | 47.30219 | 11.65723 | 7014 ft | 142 kts | 256° |
| 2026-05-06 23:59 | 47.30024 | 11.64291 | 6780 ft | 143 kts | 257° |
| 2026-05-07 00:00 | 47.29827 | 11.62852 | 6544 ft | 143 kts | 257° |
| 2026-05-07 00:00 | 47.29632 | 11.61420 | 6318 ft | 143 kts | 257° |
| 2026-05-07 00:00 | 47.29437 | 11.59996 | 6070 ft | 143 kts | 258° |
| 2026-05-07 00:00 | 47.29304 | 11.59026 | 5904 ft | 143 kts | 258° |
| 2026-05-07 00:01 | 47.29044 | 11.57131 | 5575 ft | 143 kts | 259° |
| 2026-05-07 00:01 | 47.28848 | 11.55701 | 5312 ft | 142 kts | 259° |
| 2026-05-07 00:01 | 47.28646 | 11.54272 | 4983 ft | 142 kts | 259° |
| 2026-05-07 00:01 | 47.28417 | 11.52853 | 4617 ft | 142 kts | 256° |
| 2026-05-07 00:02 | 47.28141 | 11.51462 | 4304 ft | 141 kts | 255° |
| 2026-05-07 00:02 | 47.27848 | 11.50086 | 4015 ft | 141 kts | 256° |
| 2026-05-07 00:02 | 47.27621 | 11.48692 | 3774 ft | 140 kts | 261° |
| 2026-05-07 00:02 | 47.27447 | 11.47283 | 3602 ft | 140 kts | 261° |
| 2026-05-07 00:03 | 47.27286 | 11.45865 | 3383 ft | 140 kts | 261° |
| 2026-05-07 00:03 | 47.27098 | 11.44465 | 3129 ft | 139 kts | 261° |
| 2026-05-07 00:03 | 47.26963 | 11.43060 | 2949 ft | 138 kts | 263° |
| 2026-05-07 00:03 | 47.26806 | 11.41665 | 2783 ft | 138 kts | 261° |
| 2026-05-07 00:04 | 47.26651 | 11.40279 | 2562 ft | 137 kts | 261° |
| 2026-05-07 00:04 | 47.26505 | 11.38918 | 2311 ft | 133 kts | 262° |
| 2026-05-07 00:04 | 47.26360 | 11.37569 | 2140 ft | 133 kts | 261° |
| 2026-05-07 00:04 | 47.26217 | 11.36230 | 1976 ft | 132 kts | 261° |
| 2026-05-07 00:05 | 47.26123 | 11.35361 | 1898 ft | 122 kts | 261° |
| 2026-05-07 00:05 | 47.26028 | 11.34464 | 1907 ft | 47 kts | 261° |
| 2026-05-07 00:05 | 47.25982 | 11.34041 | 1902 ft | 37 kts | 261° |
| 2026-05-07 00:05 | 47.25948 | 11.33733 | 1899 ft | 19 kts | 256° |
| 2026-05-07 00:06 | 47.25872 | 11.33754 | 1908 ft | 14 kts | 125° |
| 2026-05-07 00:06 | 47.25817 | 11.33867 | 1902 ft | 13 kts | 126° |
| 2026-05-07 00:06 | 47.25775 | 11.33975 | 1898 ft | 12 kts | 107° |
| 2026-05-07 00:06 | 47.25773 | 11.34086 | 1907 ft | 10 kts | 83° |
| 2026-05-07 00:07 | 47.25784 | 11.34186 | 1907 ft | 9 kts | 81° |
| 2026-05-07 00:07 | 47.25794 | 11.34277 | 1894 ft | 9 kts | 81° |
| 2026-05-07 00:07 | 47.25803 | 11.34360 | 1907 ft | 8 kts | 81° |
| 2026-05-07 00:07 | 47.25811 | 11.34436 | 1898 ft | 7 kts | 81° |
| 2026-05-07 00:08 | 47.25819 | 11.34504 | 1901 ft | 6 kts | 81° |
| 2026-05-07 00:08 | 47.25825 | 11.34564 | 1900 ft | 6 kts | 81° |
| 2026-05-07 00:08 | 47.25831 | 11.34616 | 1907 ft | 5 kts | 81° |
| 2026-05-07 00:08 | 47.25836 | 11.34663 | 1903 ft | 5 kts | 81° |
| 2026-05-07 00:09 | 47.25842 | 11.34719 | 1907 ft | 6 kts | 81° |
| 2026-05-07 00:09 | 47.25848 | 11.34775 | 1907 ft | 5 kts | 81° |
| 2026-05-07 00:09 | 47.25853 | 11.34822 | 1902 ft | 4 kts | 81° |
| 2026-05-07 00:09 | 47.25842 | 11.34854 | 1896 ft | 2 kts | 132° |
| 2026-05-07 00:10 | 47.25828 | 11.34862 | 1903 ft | 2 kts | 160° |
| 2026-05-07 00:10 | 47.25818 | 11.34866 | 1900 ft | 1 kts | 166° |
| 2026-05-07 00:10 | 47.25812 | 11.34868 | 1901 ft | 1 kts | 167° |
| 2026-05-07 00:10 | 47.25808 | 11.34869 | 1900 ft | 0 kts | 168° |
| 2026-05-07 00:11 | 47.25804 | 11.34870 | 1898 ft | 0 kts | 169° |